sensor_id;sensor_type;location;lat;lon;timestamp;pressure;altitude;pressure_sealevel;temperature;humidity
54872;BME280;43914;57.680;11.982;2023-03-04T00:02:21;100317.18;;;2.91;98.95
54872;BME280;43914;57.680;11.982;2023-03-04T00:04:47;100320.58;;;2.86;98.69
54872;BME280;43914;57.680;11.982;2023-03-04T00:07:13;100325.89;;;2.84;98.35
54872;BME280;43914;57.680;11.982;2023-03-04T00:09:42;100328.54;;;2.82;97.86
54872;BME280;43914;57.680;11.982;2023-03-04T00:12:08;100327.59;;;2.81;97.37
54872;BME280;43914;57.680;11.982;2023-03-04T00:14:34;100326.45;;;2.80;96.29
54872;BME280;43914;57.680;11.982;2023-03-04T00:16:59;100326.63;;;2.78;95.08
54872;BME280;43914;57.680;11.982;2023-03-04T00:19:25;100326.69;;;2.78;93.70
54872;BME280;43914;57.680;11.982;2023-03-04T00:21:50;100330.46;;;2.77;92.59
54872;BME280;43914;57.680;11.982;2023-03-04T00:24:16;100336.55;;;2.76;91.68
54872;BME280;43914;57.680;11.982;2023-03-04T00:26:41;100345.88;;;2.75;90.95
54872;BME280;43914;57.680;11.982;2023-03-04T00:29:07;100348.83;;;2.73;90.41
54872;BME280;43914;57.680;11.982;2023-03-04T00:31:32;100345.28;;;2.72;89.73
54872;BME280;43914;57.680;11.982;2023-03-04T00:33:58;100350.48;;;2.69;89.02
54872;BME280;43914;57.680;11.982;2023-03-04T00:36:23;100350.41;;;2.66;88.95
54872;BME280;43914;57.680;11.982;2023-03-04T00:38:49;100351.52;;;2.64;88.97
54872;BME280;43914;57.680;11.982;2023-03-04T00:41:15;100358.08;;;2.61;88.51
54872;BME280;43914;57.680;11.982;2023-03-04T00:43:40;100358.95;;;2.57;88.22
54872;BME280;43914;57.680;11.982;2023-03-04T00:46:05;100363.70;;;2.56;87.89
54872;BME280;43914;57.680;11.982;2023-03-04T00:48:31;100362.96;;;2.54;86.33
54872;BME280;43914;57.680;11.982;2023-03-04T00:50:56;100363.64;;;2.53;85.73
54872;BME280;43914;57.680;11.982;2023-03-04T00:53:22;100357.44;;;2.49;85.87
54872;BME280;43914;57.680;11.982;2023-03-04T00:55:48;100362.13;;;2.46;85.16
54872;BME280;43914;57.680;11.982;2023-03-04T00:58:14;100360.75;;;2.43;85.26
54872;BME280;43914;57.680;11.982;2023-03-04T01:00:40;100362.27;;;2.41;84.59
54872;BME280;43914;57.680;11.982;2023-03-04T01:03:05;100369.56;;;2.36;84.56
54872;BME280;43914;57.680;11.982;2023-03-04T01:05:31;100370.86;;;2.31;84.32
54872;BME280;43914;57.680;11.982;2023-03-04T01:07:59;100375.01;;;2.27;83.54
54872;BME280;43914;57.680;11.982;2023-03-04T01:10:25;100378.60;;;2.24;84.39
54872;BME280;43914;57.680;11.982;2023-03-04T01:12:50;100382.92;;;2.19;83.41
54872;BME280;43914;57.680;11.982;2023-03-04T01:15:16;100383.75;;;2.16;82.44
54872;BME280;43914;57.680;11.982;2023-03-04T01:17:41;100383.65;;;2.13;82.13
54872;BME280;43914;57.680;11.982;2023-03-04T01:20:08;100380.04;;;2.10;82.24
54872;BME280;43914;57.680;11.982;2023-03-04T01:22:33;100385.81;;;2.07;82.27
54872;BME280;43914;57.680;11.982;2023-03-04T01:24:59;100382.73;;;2.03;79.40
54872;BME280;43914;57.680;11.982;2023-03-04T01:27:25;100381.48;;;2.02;78.12
54872;BME280;43914;57.680;11.982;2023-03-04T01:29:50;100385.27;;;2.00;76.15
54872;BME280;43914;57.680;11.982;2023-03-04T01:32:16;100387.50;;;2.01;74.85
54872;BME280;43914;57.680;11.982;2023-03-04T01:34:41;100388.23;;;2.01;76.19
54872;BME280;43914;57.680;11.982;2023-03-04T01:37:07;100389.30;;;1.99;75.72
54872;BME280;43914;57.680;11.982;2023-03-04T01:39:34;100389.15;;;1.97;75.09
54872;BME280;43914;57.680;11.982;2023-03-04T01:41:59;100387.13;;;1.94;75.05
54872;BME280;43914;57.680;11.982;2023-03-04T01:44:25;100390.75;;;1.91;73.28
54872;BME280;43914;57.680;11.982;2023-03-04T01:46:53;100390.41;;;1.88;72.64
54872;BME280;43914;57.680;11.982;2023-03-04T01:49:19;100392.50;;;1.87;71.46
54872;BME280;43914;57.680;11.982;2023-03-04T01:51:49;100399.80;;;1.84;69.56
54872;BME280;43914;57.680;11.982;2023-03-04T01:54:17;100408.33;;;1.81;68.43
54872;BME280;43914;57.680;11.982;2023-03-04T01:56:45;100411.45;;;1.82;66.13
54872;BME280;43914;57.680;11.982;2023-03-04T01:59:16;100410.59;;;1.80;66.00
54872;BME280;43914;57.680;11.982;2023-03-04T02:01:46;100418.92;;;1.78;65.69
54872;BME280;43914;57.680;11.982;2023-03-04T02:04:13;100415.39;;;1.76;64.78
54872;BME280;43914;57.680;11.982;2023-03-04T02:06:40;100421.04;;;1.74;64.94
54872;BME280;43914;57.680;11.982;2023-03-04T02:09:06;100424.50;;;1.70;64.84
54872;BME280;43914;57.680;11.982;2023-03-04T02:11:33;100426.95;;;1.66;64.61
54872;BME280;43914;57.680;11.982;2023-03-04T02:13:59;100425.04;;;1.64;65.64
54872;BME280;43914;57.680;11.982;2023-03-04T02:16:25;100423.74;;;1.61;65.25
54872;BME280;43914;57.680;11.982;2023-03-04T02:18:50;100422.93;;;1.58;64.83
54872;BME280;43914;57.680;11.982;2023-03-04T02:21:29;100425.23;;;1.53;64.89
54872;BME280;43914;57.680;11.982;2023-03-04T02:24:24;100425.86;;;1.51;64.17
54872;BME280;43914;57.680;11.982;2023-03-04T02:26:51;100429.55;;;1.49;64.19
54872;BME280;43914;57.680;11.982;2023-03-04T02:29:17;100432.54;;;1.47;63.63
54872;BME280;43914;57.680;11.982;2023-03-04T02:31:46;100433.22;;;1.45;63.50
54872;BME280;43914;57.680;11.982;2023-03-04T02:36:40;100428.14;;;1.42;63.71
54872;BME280;43914;57.680;11.982;2023-03-04T02:39:31;100432.86;;;1.41;63.58
54872;BME280;43914;57.680;11.982;2023-03-04T02:41:57;100431.54;;;1.39;63.35
54872;BME280;43914;57.680;11.982;2023-03-04T02:44:28;100434.44;;;1.39;63.40
54872;BME280;43914;57.680;11.982;2023-03-04T02:46:55;100433.63;;;1.38;63.05
54872;BME280;43914;57.680;11.982;2023-03-04T02:49:22;100435.96;;;1.39;63.18
54872;BME280;43914;57.680;11.982;2023-03-04T02:54:39;100440.31;;;1.42;62.54
54872;BME280;43914;57.680;11.982;2023-03-04T02:57:08;100440.52;;;1.44;62.43
54872;BME280;43914;57.680;11.982;2023-03-04T02:59:35;100442.93;;;1.45;62.22
54872;BME280;43914;57.680;11.982;2023-03-04T03:02:00;100442.34;;;1.46;61.89
54872;BME280;43914;57.680;11.982;2023-03-04T03:04:27;100444.55;;;1.45;61.58
54872;BME280;43914;57.680;11.982;2023-03-04T03:06:52;100444.27;;;1.43;61.36
54872;BME280;43914;57.680;11.982;2023-03-04T03:09:18;100448.32;;;1.42;61.28
54872;BME280;43914;57.680;11.982;2023-03-04T03:11:44;100446.20;;;1.39;61.04
54872;BME280;43914;57.680;11.982;2023-03-04T03:14:10;100451.23;;;1.36;60.65
54872;BME280;43914;57.680;11.982;2023-03-04T03:16:36;100460.86;;;1.33;60.04
54872;BME280;43914;57.680;11.982;2023-03-04T03:19:01;100461.19;;;1.29;59.76
54872;BME280;43914;57.680;11.982;2023-03-04T03:21:27;100466.96;;;1.26;59.69
54872;BME280;43914;57.680;11.982;2023-03-04T03:23:52;100467.11;;;1.20;59.27
54872;BME280;43914;57.680;11.982;2023-03-04T03:26:18;100471.01;;;1.13;59.05
54872;BME280;43914;57.680;11.982;2023-03-04T03:28:44;100471.25;;;1.08;58.99
54872;BME280;43914;57.680;11.982;2023-03-04T03:31:09;100475.11;;;1.02;58.97
54872;BME280;43914;57.680;11.982;2023-03-04T03:33:35;100478.58;;;0.96;57.91
54872;BME280;43914;57.680;11.982;2023-03-04T03:36:01;100478.15;;;0.91;57.51
54872;BME280;43914;57.680;11.982;2023-03-04T03:38:26;100480.02;;;0.85;57.57
54872;BME280;43914;57.680;11.982;2023-03-04T03:40:52;100480.40;;;0.81;58.34
54872;BME280;43914;57.680;11.982;2023-03-04T03:43:18;100481.58;;;0.77;57.44
54872;BME280;43914;57.680;11.982;2023-03-04T03:45:43;100489.02;;;0.72;55.80
54872;BME280;43914;57.680;11.982;2023-03-04T03:48:09;100489.98;;;0.67;55.38
54872;BME280;43914;57.680;11.982;2023-03-04T03:50:34;100489.23;;;0.63;54.05
54872;BME280;43914;57.680;11.982;2023-03-04T03:53:00;100490.65;;;0.61;53.69
54872;BME280;43914;57.680;11.982;2023-03-04T03:55:26;100493.95;;;0.57;54.05
54872;BME280;43914;57.680;11.982;2023-03-04T03:57:51;100498.13;;;0.53;53.45
54872;BME280;43914;57.680;11.982;2023-03-04T04:00:17;100495.09;;;0.52;53.66
54872;BME280;43914;57.680;11.982;2023-03-04T04:02:43;100494.70;;;0.48;53.38
54872;BME280;43914;57.680;11.982;2023-03-04T04:05:09;100494.50;;;0.44;52.86
54872;BME280;43914;57.680;11.982;2023-03-04T04:07:36;100501.68;;;0.40;52.44
54872;BME280;43914;57.680;11.982;2023-03-04T04:10:02;100500.08;;;0.38;52.49
54872;BME280;43914;57.680;11.982;2023-03-04T04:12:28;100493.48;;;0.34;52.67
54872;BME280;43914;57.680;11.982;2023-03-04T04:14:54;100501.46;;;0.32;52.63
54872;BME280;43914;57.680;11.982;2023-03-04T04:17:19;100501.34;;;0.28;52.87
54872;BME280;43914;57.680;11.982;2023-03-04T04:19:45;100504.70;;;0.26;52.37
54872;BME280;43914;57.680;11.982;2023-03-04T04:22:14;100505.64;;;0.23;52.50
54872;BME280;43914;57.680;11.982;2023-03-04T04:24:39;100504.45;;;0.20;52.24
54872;BME280;43914;57.680;11.982;2023-03-04T04:27:05;100506.23;;;0.18;52.13
54872;BME280;43914;57.680;11.982;2023-03-04T04:29:30;100502.26;;;0.15;52.02
54872;BME280;43914;57.680;11.982;2023-03-04T04:31:56;100507.04;;;0.12;52.13
54872;BME280;43914;57.680;11.982;2023-03-04T04:34:23;100509.23;;;0.09;51.91
54872;BME280;43914;57.680;11.982;2023-03-04T04:36:49;100511.52;;;0.07;52.57
54872;BME280;43914;57.680;11.982;2023-03-04T04:39:14;100511.26;;;0.03;52.60
54872;BME280;43914;57.680;11.982;2023-03-04T04:41:42;100510.29;;;0.00;51.29
54872;BME280;43914;57.680;11.982;2023-03-04T04:44:08;100509.13;;;-0.01;51.90
54872;BME280;43914;57.680;11.982;2023-03-04T04:46:36;100516.44;;;-0.02;51.69
54872;BME280;43914;57.680;11.982;2023-03-04T04:49:02;100516.88;;;-0.03;51.45
54872;BME280;43914;57.680;11.982;2023-03-04T04:51:28;100517.22;;;-0.05;51.64
54872;BME280;43914;57.680;11.982;2023-03-04T04:53:54;100514.73;;;-0.07;50.69
54872;BME280;43914;57.680;11.982;2023-03-04T04:56:22;100520.70;;;-0.07;51.60
54872;BME280;43914;57.680;11.982;2023-03-04T04:58:50;100525.63;;;-0.09;51.24
54872;BME280;43914;57.680;11.982;2023-03-04T05:01:16;100530.01;;;-0.11;51.32
54872;BME280;43914;57.680;11.982;2023-03-04T05:03:42;100532.96;;;-0.13;51.73
54872;BME280;43914;57.680;11.982;2023-03-04T05:06:09;100543.90;;;-0.13;52.19
54872;BME280;43914;57.680;11.982;2023-03-04T05:08:35;100545.31;;;-0.16;51.01
54872;BME280;43914;57.680;11.982;2023-03-04T05:11:02;100550.66;;;-0.17;51.71
54872;BME280;43914;57.680;11.982;2023-03-04T05:13:27;100547.92;;;-0.18;51.36
54872;BME280;43914;57.680;11.982;2023-03-04T05:15:54;100557.27;;;-0.18;50.66
54872;BME280;43914;57.680;11.982;2023-03-04T05:18:21;100565.29;;;-0.19;50.74
54872;BME280;43914;57.680;11.982;2023-03-04T05:20:52;100563.16;;;-0.21;50.75
54872;BME280;43914;57.680;11.982;2023-03-04T05:23:18;100576.17;;;-0.21;51.05
54872;BME280;43914;57.680;11.982;2023-03-04T05:25:45;100575.77;;;-0.22;50.54
54872;BME280;43914;57.680;11.982;2023-03-04T05:28:11;100580.16;;;-0.25;50.20
54872;BME280;43914;57.680;11.982;2023-03-04T05:30:38;100584.16;;;-0.26;50.45
54872;BME280;43914;57.680;11.982;2023-03-04T05:33:05;100589.42;;;-0.28;50.66
54872;BME280;43914;57.680;11.982;2023-03-04T05:35:34;100592.21;;;-0.31;49.71
54872;BME280;43914;57.680;11.982;2023-03-04T05:38:04;100593.90;;;-0.32;50.04
54872;BME280;43914;57.680;11.982;2023-03-04T05:40:31;100599.52;;;-0.34;50.33
54872;BME280;43914;57.680;11.982;2023-03-04T05:42:56;100599.36;;;-0.34;49.99
54872;BME280;43914;57.680;11.982;2023-03-04T05:45:22;100603.30;;;-0.37;49.80
54872;BME280;43914;57.680;11.982;2023-03-04T05:47:48;100606.95;;;-0.39;50.21
54872;BME280;43914;57.680;11.982;2023-03-04T05:50:14;100609.33;;;-0.40;50.09
54872;BME280;43914;57.680;11.982;2023-03-04T05:52:40;100613.95;;;-0.43;50.25
54872;BME280;43914;57.680;11.982;2023-03-04T05:55:06;100616.48;;;-0.46;49.89
54872;BME280;43914;57.680;11.982;2023-03-04T05:57:35;100618.61;;;-0.47;49.94
54872;BME280;43914;57.680;11.982;2023-03-04T06:00:01;100619.09;;;-0.49;49.95
54872;BME280;43914;57.680;11.982;2023-03-04T06:02:26;100615.50;;;-0.50;50.50
54872;BME280;43914;57.680;11.982;2023-03-04T06:04:52;100623.86;;;-0.51;50.09
54872;BME280;43914;57.680;11.982;2023-03-04T06:07:17;100624.98;;;-0.52;48.88
54872;BME280;43914;57.680;11.982;2023-03-04T06:09:42;100622.48;;;-0.54;49.18
54872;BME280;43914;57.680;11.982;2023-03-04T06:12:11;100624.63;;;-0.54;49.50
54872;BME280;43914;57.680;11.982;2023-03-04T06:14:36;100629.77;;;-0.55;49.64
54872;BME280;43914;57.680;11.982;2023-03-04T06:17:02;100627.23;;;-0.56;49.46
54872;BME280;43914;57.680;11.982;2023-03-04T06:19:31;100635.92;;;-0.55;48.66
54872;BME280;43914;57.680;11.982;2023-03-04T06:21:56;100639.01;;;-0.53;49.17
54872;BME280;43914;57.680;11.982;2023-03-04T06:24:24;100644.71;;;-0.52;50.11
54872;BME280;43914;57.680;11.982;2023-03-04T06:26:52;100646.92;;;-0.51;50.24
54872;BME280;43914;57.680;11.982;2023-03-04T06:29:18;100652.09;;;-0.50;49.89
54872;BME280;43914;57.680;11.982;2023-03-04T06:31:43;100652.48;;;-0.50;49.26
54872;BME280;43914;57.680;11.982;2023-03-04T06:34:09;100653.61;;;-0.51;49.32
54872;BME280;43914;57.680;11.982;2023-03-04T06:36:34;100659.98;;;-0.52;49.29
54872;BME280;43914;57.680;11.982;2023-03-04T06:39:04;100657.84;;;-0.51;49.69
54872;BME280;43914;57.680;11.982;2023-03-04T06:41:30;100669.14;;;-0.49;49.84
54872;BME280;43914;57.680;11.982;2023-03-04T06:43:56;100666.73;;;-0.48;49.48
54872;BME280;43914;57.680;11.982;2023-03-04T06:46:22;100671.13;;;-0.48;49.53
54872;BME280;43914;57.680;11.982;2023-03-04T06:48:48;100667.15;;;-0.47;49.47
54872;BME280;43914;57.680;11.982;2023-03-04T06:51:14;100673.29;;;-0.46;49.11
54872;BME280;43914;57.680;11.982;2023-03-04T06:53:39;100675.95;;;-0.46;48.73
54872;BME280;43914;57.680;11.982;2023-03-04T06:56:06;100673.73;;;-0.47;48.69
54872;BME280;43914;57.680;11.982;2023-03-04T06:58:32;100685.30;;;-0.44;48.82
54872;BME280;43914;57.680;11.982;2023-03-04T07:01:19;100691.92;;;-0.43;48.26
54872;BME280;43914;57.680;11.982;2023-03-04T07:03:45;100690.59;;;-0.42;48.33
54872;BME280;43914;57.680;11.982;2023-03-04T07:06:13;100697.04;;;-0.41;48.11
54872;BME280;43914;57.680;11.982;2023-03-04T07:08:42;100693.71;;;-0.39;47.86
54872;BME280;43914;57.680;11.982;2023-03-04T07:11:08;100700.38;;;-0.36;47.71
54872;BME280;43914;57.680;11.982;2023-03-04T07:13:34;100695.97;;;-0.34;47.51
54872;BME280;43914;57.680;11.982;2023-03-04T07:16:07;100702.88;;;-0.32;46.81
54872;BME280;43914;57.680;11.982;2023-03-04T07:18:33;100702.98;;;-0.31;47.16
54872;BME280;43914;57.680;11.982;2023-03-04T07:20:59;100704.39;;;-0.28;46.84
54872;BME280;43914;57.680;11.982;2023-03-04T07:23:24;100708.13;;;-0.26;46.88
54872;BME280;43914;57.680;11.982;2023-03-04T07:25:50;100714.55;;;-0.23;46.89
54872;BME280;43914;57.680;11.982;2023-03-04T07:28:17;100713.90;;;-0.21;47.17
54872;BME280;43914;57.680;11.982;2023-03-04T07:30:43;100718.13;;;-0.19;46.81
54872;BME280;43914;57.680;11.982;2023-03-04T07:33:09;100722.86;;;-0.19;45.64
54872;BME280;43914;57.680;11.982;2023-03-04T07:35:35;100725.33;;;-0.19;45.00
54872;BME280;43914;57.680;11.982;2023-03-04T07:38:00;100718.76;;;-0.18;45.51
54872;BME280;43914;57.680;11.982;2023-03-04T07:40:26;100718.98;;;-0.16;44.12
54872;BME280;43914;57.680;11.982;2023-03-04T07:42:53;100722.80;;;-0.13;42.47
54872;BME280;43914;57.680;11.982;2023-03-04T07:45:21;100722.48;;;-0.09;41.57
54872;BME280;43914;57.680;11.982;2023-03-04T07:47:49;100725.75;;;-0.03;41.06
54872;BME280;43914;57.680;11.982;2023-03-04T07:50:15;100721.77;;;0.01;42.19
54872;BME280;43914;57.680;11.982;2023-03-04T07:52:43;100716.38;;;0.05;41.46
54872;BME280;43914;57.680;11.982;2023-03-04T07:55:10;100722.23;;;0.09;41.40
54872;BME280;43914;57.680;11.982;2023-03-04T07:57:41;100729.98;;;0.13;40.47
54872;BME280;43914;57.680;11.982;2023-03-04T08:00:09;100729.10;;;0.18;40.10
54872;BME280;43914;57.680;11.982;2023-03-04T08:02:35;100729.86;;;0.22;40.34
54872;BME280;43914;57.680;11.982;2023-03-04T08:05:00;100731.59;;;0.25;38.72
54872;BME280;43914;57.680;11.982;2023-03-04T08:07:26;100731.27;;;0.29;38.36
54872;BME280;43914;57.680;11.982;2023-03-04T08:09:51;100741.86;;;0.34;38.58
54872;BME280;43914;57.680;11.982;2023-03-04T08:12:20;100748.49;;;0.39;37.28
54872;BME280;43914;57.680;11.982;2023-03-04T08:14:45;100748.81;;;0.44;37.88
54872;BME280;43914;57.680;11.982;2023-03-04T08:17:11;100753.42;;;0.48;37.25
54872;BME280;43914;57.680;11.982;2023-03-04T08:19:39;100756.02;;;0.54;37.42
54872;BME280;43914;57.680;11.982;2023-03-04T08:22:06;100752.35;;;0.56;36.92
54872;BME280;43914;57.680;11.982;2023-03-04T08:24:31;100765.60;;;0.60;36.67
54872;BME280;43914;57.680;11.982;2023-03-04T08:26:57;100765.02;;;0.61;36.45
54872;BME280;43914;57.680;11.982;2023-03-04T08:29:24;100768.27;;;0.64;37.20
54872;BME280;43914;57.680;11.982;2023-03-04T08:31:50;100770.19;;;0.67;37.25
54872;BME280;43914;57.680;11.982;2023-03-04T08:34:19;100769.77;;;0.70;38.72
54872;BME280;43914;57.680;11.982;2023-03-04T08:36:47;100771.15;;;0.73;38.50
54872;BME280;43914;57.680;11.982;2023-03-04T08:39:15;100777.13;;;0.73;38.10
54872;BME280;43914;57.680;11.982;2023-03-04T08:41:41;100770.53;;;0.69;37.89
54872;BME280;43914;57.680;11.982;2023-03-04T08:44:07;100772.23;;;0.72;37.78
54872;BME280;43914;57.680;11.982;2023-03-04T08:46:38;100771.77;;;0.74;38.09
54872;BME280;43914;57.680;11.982;2023-03-04T08:49:04;100769.90;;;0.77;39.13
54872;BME280;43914;57.680;11.982;2023-03-04T08:51:30;100780.21;;;0.83;37.32
54872;BME280;43914;57.680;11.982;2023-03-04T08:53:56;100774.23;;;0.81;37.70
54872;BME280;43914;57.680;11.982;2023-03-04T08:56:22;100780.16;;;0.79;37.26
54872;BME280;43914;57.680;11.982;2023-03-04T08:58:48;100776.66;;;0.77;37.37
54872;BME280;43914;57.680;11.982;2023-03-04T09:01:16;100775.77;;;0.77;37.88
54872;BME280;43914;57.680;11.982;2023-03-04T09:03:42;100777.63;;;0.78;38.28
54872;BME280;43914;57.680;11.982;2023-03-04T09:06:10;100780.77;;;0.80;38.44
54872;BME280;43914;57.680;11.982;2023-03-04T09:08:37;100781.75;;;0.84;38.18
54872;BME280;43914;57.680;11.982;2023-03-04T09:11:03;100790.10;;;0.85;37.21
54872;BME280;43914;57.680;11.982;2023-03-04T09:13:29;100792.33;;;0.84;36.99
54872;BME280;43914;57.680;11.982;2023-03-04T09:15:56;100789.14;;;0.84;37.22
54872;BME280;43914;57.680;11.982;2023-03-04T09:18:30;100793.60;;;0.85;36.89
54872;BME280;43914;57.680;11.982;2023-03-04T09:20:56;100791.40;;;0.87;36.47
54872;BME280;43914;57.680;11.982;2023-03-04T09:23:21;100790.10;;;0.88;37.25
54872;BME280;43914;57.680;11.982;2023-03-04T09:25:47;100782.88;;;0.92;37.08
54872;BME280;43914;57.680;11.982;2023-03-04T09:28:14;100784.96;;;0.92;36.01
54872;BME280;43914;57.680;11.982;2023-03-04T09:30:40;100786.02;;;0.92;35.69
54872;BME280;43914;57.680;11.982;2023-03-04T09:33:06;100781.66;;;0.94;36.63
54872;BME280;43914;57.680;11.982;2023-03-04T09:35:31;100780.14;;;0.98;36.61
54872;BME280;43914;57.680;11.982;2023-03-04T09:37:57;100789.20;;;1.02;36.12
54872;BME280;43914;57.680;11.982;2023-03-04T09:40:27;100783.36;;;0.99;35.22
54872;BME280;43914;57.680;11.982;2023-03-04T09:43:00;100780.66;;;1.00;35.58
54872;BME280;43914;57.680;11.982;2023-03-04T09:45:57;100769.88;;;1.03;35.94
54872;BME280;43914;57.680;11.982;2023-03-04T09:48:27;100770.55;;;1.10;36.58
54872;BME280;43914;57.680;11.982;2023-03-04T09:54:23;100771.20;;;1.20;35.00
54872;BME280;43914;57.680;11.982;2023-03-04T09:56:20;100771.84;;;1.18;33.77
54872;BME280;43914;57.680;11.982;2023-03-04T10:03:58;100761.95;;;1.21;33.22
54872;BME280;43914;57.680;11.982;2023-03-04T10:06:26;100771.28;;;1.21;33.31
54872;BME280;43914;57.680;11.982;2023-03-04T10:09:22;100770.52;;;1.17;32.94
54872;BME280;43914;57.680;11.982;2023-03-04T10:12:15;100768.33;;;1.20;33.51
54872;BME280;43914;57.680;11.982;2023-03-04T10:14:48;100766.88;;;1.21;32.98
54872;BME280;43914;57.680;11.982;2023-03-04T10:20:02;100765.91;;;1.19;32.73
54872;BME280;43914;57.680;11.982;2023-03-04T10:22:40;100766.16;;;1.23;33.31
54872;BME280;43914;57.680;11.982;2023-03-04T10:25:23;100768.09;;;1.26;33.27
54872;BME280;43914;57.680;11.982;2023-03-04T10:30:58;100778.87;;;1.32;33.30
54872;BME280;43914;57.680;11.982;2023-03-04T10:33:31;100769.66;;;1.33;33.49
54872;BME280;43914;57.680;11.982;2023-03-04T10:36:32;100773.48;;;1.33;33.36
54872;BME280;43914;57.680;11.982;2023-03-04T10:39:20;100768.88;;;1.33;32.98
54872;BME280;43914;57.680;11.982;2023-03-04T10:44:51;100761.38;;;1.36;33.65
54872;BME280;43914;57.680;11.982;2023-03-04T10:47:23;100766.21;;;1.40;33.03
54872;BME280;43914;57.680;11.982;2023-03-04T10:52:33;100760.14;;;1.46;32.89
54872;BME280;43914;57.680;11.982;2023-03-04T10:55:02;100759.40;;;1.55;33.76
54872;BME280;43914;57.680;11.982;2023-03-04T10:57:37;100759.51;;;1.58;33.18
54872;BME280;43914;57.680;11.982;2023-03-04T11:02:42;100751.54;;;1.63;32.72
54872;BME280;43914;57.680;11.982;2023-03-04T11:07:38;100752.45;;;1.67;32.71
54872;BME280;43914;57.680;11.982;2023-03-04T11:10:21;100753.74;;;1.66;32.65
54872;BME280;43914;57.680;11.982;2023-03-04T11:12:58;100750.89;;;1.64;32.71
54872;BME280;43914;57.680;11.982;2023-03-04T11:15:26;100750.67;;;1.69;33.07
54872;BME280;43914;57.680;11.982;2023-03-04T11:17:56;100745.47;;;1.70;32.70
54872;BME280;43914;57.680;11.982;2023-03-04T11:22:56;100743.50;;;1.68;33.25
54872;BME280;43914;57.680;11.982;2023-03-04T11:25:37;100743.98;;;1.70;33.57
54872;BME280;43914;57.680;11.982;2023-03-04T11:28:20;100744.64;;;1.78;33.24
54872;BME280;43914;57.680;11.982;2023-03-04T11:30:54;100738.74;;;1.85;33.99
54872;BME280;43914;57.680;11.982;2023-03-04T11:38:38;100722.34;;;1.91;33.09
54872;BME280;43914;57.680;11.982;2023-03-04T11:41:15;100728.12;;;1.98;32.59
54872;BME280;43914;57.680;11.982;2023-03-04T11:43:45;100726.71;;;2.00;32.14
54872;BME280;43914;57.680;11.982;2023-03-04T12:00:40;100719.56;;;2.01;30.98
54872;BME280;43914;57.680;11.982;2023-03-04T12:03:33;100720.77;;;2.01;30.81
54872;BME280;43914;57.680;11.982;2023-03-04T12:06:11;100714.52;;;2.00;31.15
54872;BME280;43914;57.680;11.982;2023-03-04T12:28:00;100688.19;;;2.26;31.89
54872;BME280;43914;57.680;11.982;2023-03-04T12:41:38;100671.73;;;2.75;32.48
54872;BME280;43914;57.680;11.982;2023-03-04T12:44:17;100674.39;;;2.87;32.32
54872;BME280;43914;57.680;11.982;2023-03-04T12:47:21;100671.54;;;2.96;31.62
54872;BME280;43914;57.680;11.982;2023-03-04T12:55:18;100662.73;;;3.15;31.40
54872;BME280;43914;57.680;11.982;2023-03-04T12:57:47;100664.77;;;3.24;30.31
54872;BME280;43914;57.680;11.982;2023-03-04T13:06:04;100661.48;;;3.57;30.88
54872;BME280;43914;57.680;11.982;2023-03-04T13:08:54;100660.70;;;3.71;30.32
54872;BME280;43914;57.680;11.982;2023-03-04T13:16:46;100645.95;;;4.12;30.39
54872;BME280;43914;57.680;11.982;2023-03-04T13:24:58;100644.02;;;4.52;29.39
54872;BME280;43914;57.680;11.982;2023-03-04T13:38:32;100631.73;;;4.49;32.04
54872;BME280;43914;57.680;11.982;2023-03-04T13:41:22;100628.70;;;4.62;32.87
54872;BME280;43914;57.680;11.982;2023-03-04T13:43:57;100623.90;;;4.64;33.31
54872;BME280;43914;57.680;11.982;2023-03-04T13:53:50;100619.66;;;4.28;33.57
54872;BME280;43914;57.680;11.982;2023-03-04T13:56:34;100615.57;;;4.05;33.93
54872;BME280;43914;57.680;11.982;2023-03-04T14:04:19;100610.92;;;3.58;35.11
54872;BME280;43914;57.680;11.982;2023-03-04T14:06:47;100611.86;;;3.32;34.73
54872;BME280;43914;57.680;11.982;2023-03-04T14:09:41;100620.89;;;3.08;34.91
54872;BME280;43914;57.680;11.982;2023-03-04T14:12:17;100610.77;;;2.86;35.29
54872;BME280;43914;57.680;11.982;2023-03-04T14:14:49;100607.72;;;2.75;35.91
54872;BME280;43914;57.680;11.982;2023-03-04T14:17:19;100604.05;;;2.68;36.32
54872;BME280;43914;57.680;11.982;2023-03-04T14:19:49;100595.67;;;2.57;36.12
54872;BME280;43914;57.680;11.982;2023-03-04T14:22:38;100598.50;;;2.44;36.20
54872;BME280;43914;57.680;11.982;2023-03-04T14:27:40;100593.23;;;2.26;36.73
54872;BME280;43914;57.680;11.982;2023-03-04T14:30:17;100589.54;;;2.18;36.74
54872;BME280;43914;57.680;11.982;2023-03-04T14:32:44;100584.99;;;2.11;37.29
54872;BME280;43914;57.680;11.982;2023-03-04T14:35:22;100588.34;;;2.03;36.89
54872;BME280;43914;57.680;11.982;2023-03-04T14:40:22;100577.60;;;1.85;37.14
54872;BME280;43914;57.680;11.982;2023-03-04T14:42:58;100574.15;;;1.80;37.06
54872;BME280;43914;57.680;11.982;2023-03-04T14:45:27;100572.91;;;1.74;37.00
54872;BME280;43914;57.680;11.982;2023-03-04T14:47:58;100573.02;;;1.68;37.40
54872;BME280;43914;57.680;11.982;2023-03-04T14:50:25;100570.98;;;1.63;37.93
54872;BME280;43914;57.680;11.982;2023-03-04T14:53:12;100565.56;;;1.61;38.26
54872;BME280;43914;57.680;11.982;2023-03-04T14:58:28;100563.23;;;1.57;38.27
54872;BME280;43914;57.680;11.982;2023-03-04T15:01:33;100558.02;;;1.54;38.12
54872;BME280;43914;57.680;11.982;2023-03-04T15:04:10;100554.42;;;1.50;37.66
54872;BME280;43914;57.680;11.982;2023-03-04T15:06:39;100551.73;;;1.47;37.53
54872;BME280;43914;57.680;11.982;2023-03-04T15:09:23;100550.30;;;1.42;37.40
54872;BME280;43914;57.680;11.982;2023-03-04T15:12:01;100545.15;;;1.41;37.30
54872;BME280;43914;57.680;11.982;2023-03-04T15:14:48;100539.70;;;1.36;37.31